createdAt,value
2023-11-25T00:02:22.199Z,3.40
2023-11-25T00:04:50.398Z,4.50
2023-11-25T00:07:18.635Z,4.50
2023-11-25T00:09:47.809Z,4.00
2023-11-25T00:12:15.837Z,3.00
2023-11-25T00:14:44.056Z,3.80
2023-11-25T00:17:12.741Z,3.00
2023-11-25T00:19:41.134Z,3.40
2023-11-25T00:22:09.292Z,3.60
2023-11-25T00:24:37.412Z,3.20
2023-11-25T00:27:05.793Z,4.00
2023-11-25T00:29:34.839Z,2.40
2023-11-25T00:34:32.785Z,2.80
2023-11-25T00:37:05.257Z,3.20
2023-11-25T00:39:34.600Z,3.10
2023-11-25T00:42:03.013Z,3.60
2023-11-25T00:44:31.848Z,3.60
2023-11-25T00:47:02.034Z,3.80
2023-11-25T00:49:31.755Z,4.40
2023-11-25T00:51:59.864Z,3.40
2023-11-25T00:54:31.472Z,4.20
2023-11-25T00:56:59.590Z,3.30
2023-11-25T00:59:33.247Z,3.60
2023-11-25T01:02:02.217Z,3.60
2023-11-25T01:06:58.795Z,4.10
2023-11-25T01:09:29.720Z,5.10
2023-11-25T01:11:58.520Z,4.30
2023-11-25T01:14:27.262Z,3.70
2023-11-25T01:16:55.576Z,3.80
2023-11-25T01:19:26.978Z,3.40
2023-11-25T01:21:55.177Z,3.60
2023-11-25T01:24:26.494Z,3.50
2023-11-25T01:26:55.547Z,4.00
2023-11-25T01:29:24.194Z,4.10
2023-11-25T01:31:52.298Z,3.70
2023-11-25T01:34:21.287Z,3.80
2023-11-25T01:36:49.462Z,3.80
2023-11-25T01:39:17.532Z,3.10
2023-11-25T01:41:45.705Z,3.30
2023-11-25T01:44:14.071Z,3.70
2023-11-25T01:46:45.024Z,4.00
2023-11-25T01:49:16.639Z,4.80
2023-11-25T01:51:48.390Z,3.80
2023-11-25T01:54:18.065Z,3.40
2023-11-25T01:56:49.847Z,2.80
2023-11-25T01:59:19.655Z,3.40
2023-11-25T02:01:48.159Z,3.50
2023-11-25T02:04:16.686Z,2.90
2023-11-25T02:06:46.334Z,3.10
2023-11-25T02:09:14.458Z,2.60
2023-11-25T02:11:59.918Z,3.60
2023-11-25T02:14:29.600Z,3.60
2023-11-25T02:17:01.773Z,4.00
2023-11-25T02:19:30.591Z,4.20
2023-11-25T02:21:59.994Z,4.00
2023-11-25T02:24:31.542Z,3.90
2023-11-25T02:27:00.687Z,3.30
2023-11-25T02:29:29.692Z,3.40
2023-11-25T02:32:01.077Z,3.20
2023-11-25T02:34:31.426Z,3.60
2023-11-25T02:36:59.740Z,4.10
2023-11-25T02:39:29.770Z,3.80
2023-11-25T02:42:01.245Z,4.10
2023-11-25T02:46:57.954Z,3.00
2023-11-25T02:49:27.244Z,3.10
2023-11-25T02:51:56.148Z,3.90
2023-11-25T02:54:26.063Z,2.40
2023-11-25T02:56:54.075Z,4.70
2023-11-25T02:59:23.381Z,4.20
2023-11-25T03:01:53.944Z,3.20
2023-11-25T03:04:28.101Z,3.40
2023-11-25T03:06:59.220Z,3.60
2023-11-25T03:09:29.381Z,3.60
2023-11-25T03:12:00.859Z,2.90
2023-11-25T03:14:28.909Z,3.40
2023-11-25T03:16:57.683Z,2.70
2023-11-25T03:19:25.909Z,3.00
2023-11-25T03:21:54.368Z,2.50
2023-11-25T03:24:25.307Z,3.00
2023-11-25T03:26:54.032Z,2.80
2023-11-25T03:29:22.148Z,2.30
2023-11-25T03:31:50.226Z,2.30
2023-11-25T03:34:18.707Z,1.60
2023-11-25T03:36:46.783Z,2.00
2023-11-25T03:39:15.143Z,1.80
2023-11-25T03:41:44.264Z,2.80
2023-11-25T03:44:12.252Z,1.20
2023-11-25T03:46:43.388Z,1.80
2023-11-25T03:49:13.637Z,2.20
2023-11-25T03:51:42.208Z,1.30
2023-11-25T03:54:10.269Z,2.10
2023-11-25T03:56:38.343Z,1.70
2023-11-25T03:59:06.302Z,1.80
2023-11-25T04:01:34.368Z,2.00
2023-11-25T04:04:04.950Z,2.40
2023-11-25T04:06:33.185Z,2.50
2023-11-25T04:09:02.196Z,2.50
2023-11-25T04:11:30.619Z,2.30
2023-11-25T04:14:01.515Z,2.60
2023-11-25T04:16:29.733Z,2.00
2023-11-25T04:18:58.507Z,2.20
2023-11-25T04:21:27.842Z,2.60
2023-11-25T04:23:58.752Z,2.10
2023-11-25T04:26:27.271Z,1.90
2023-11-25T04:28:55.199Z,1.50
2023-11-25T04:31:23.353Z,2.10
2023-11-25T04:33:52.099Z,1.10
2023-11-25T04:36:20.366Z,0.90
2023-11-25T04:38:48.247Z,1.30
2023-11-25T04:41:16.488Z,2.20
2023-11-25T04:43:44.659Z,1.70
2023-11-25T04:46:12.839Z,1.90
2023-11-25T04:48:41.923Z,2.10
2023-11-25T04:51:10.746Z,1.50
2023-11-25T04:56:07.457Z,1.40
2023-11-25T04:58:35.638Z,2.30
2023-11-25T05:01:03.950Z,2.00
2023-11-25T05:03:34.443Z,2.00
2023-11-25T05:06:03.834Z,2.60
2023-11-25T05:08:32.409Z,1.10
2023-11-25T05:11:01.611Z,0.80
2023-11-25T05:13:31.894Z,1.60
2023-11-25T05:16:00.527Z,1.50
2023-11-25T05:18:28.605Z,1.10
2023-11-25T05:20:58.705Z,2.30
2023-11-25T05:23:27.437Z,1.30
2023-11-25T05:25:55.778Z,1.40
2023-11-25T05:28:23.980Z,1.20
2023-11-25T05:30:52.121Z,1.50
2023-11-25T05:33:20.139Z,1.50
2023-11-25T05:35:48.576Z,0.90
2023-11-25T05:38:20.581Z,1.50
2023-11-25T05:40:48.722Z,1.20
2023-11-25T05:43:18.000Z,1.30
2023-11-25T05:45:47.432Z,0.90
2023-11-25T05:48:15.569Z,1.40
2023-11-25T05:50:44.005Z,1.40
2023-11-25T05:53:12.891Z,1.10
2023-11-25T05:55:40.930Z,1.40
2023-11-25T05:58:09.390Z,1.30
2023-11-25T06:00:37.464Z,1.20
2023-11-25T06:03:05.688Z,2.00
2023-11-25T06:05:33.832Z,2.10
2023-11-25T06:08:02.236Z,1.20
2023-11-25T06:10:30.939Z,1.00
2023-11-25T06:13:00.784Z,1.00
2023-11-25T06:15:29.058Z,1.50
2023-11-25T06:20:31.454Z,0.90
2023-11-25T06:22:59.432Z,1.00
2023-11-25T06:25:28.678Z,1.20
2023-11-25T06:27:57.518Z,1.10
2023-11-25T06:30:25.574Z,0.80
2023-11-25T06:32:53.862Z,1.10
2023-11-25T06:35:25.141Z,1.70
2023-11-25T06:37:53.343Z,1.10
2023-11-25T06:40:21.516Z,1.30
2023-11-25T06:42:49.607Z,1.20
2023-11-25T06:45:17.586Z,1.10
2023-11-25T06:47:45.819Z,1.20
2023-11-25T06:50:14.856Z,1.20
2023-11-25T06:55:11.113Z,0.90
2023-11-25T06:57:41.748Z,0.80
2023-11-25T07:00:11.992Z,0.60
2023-11-25T07:02:43.946Z,0.50
2023-11-25T07:05:15.011Z,0.90
2023-11-25T07:07:43.314Z,0.80
2023-11-25T07:10:15.372Z,0.60
2023-11-25T07:12:43.773Z,0.50
2023-11-25T07:15:12.868Z,1.10
2023-11-25T07:17:41.435Z,1.00
2023-11-25T07:20:13.615Z,1.00
2023-11-25T07:22:42.671Z,1.10
2023-11-25T07:25:13.022Z,1.30
2023-11-25T07:27:44.789Z,1.00
2023-11-25T07:30:15.684Z,1.10
2023-11-25T07:32:45.647Z,1.20
2023-11-25T07:35:14.097Z,0.90
2023-11-25T07:37:42.241Z,0.60
2023-11-25T07:40:13.678Z,0.80
2023-11-25T07:42:50.817Z,1.00
2023-11-25T07:45:19.586Z,0.70
2023-11-25T07:47:48.670Z,0.60
2023-11-25T07:50:17.663Z,0.50
2023-11-25T07:52:46.952Z,1.00
2023-11-25T07:55:15.262Z,0.90
2023-11-25T07:57:43.397Z,9.20
2023-11-25T08:00:21.249Z,6.20
2023-11-25T08:02:49.767Z,18.30
2023-11-25T08:05:24.942Z,15.90
2023-11-25T08:07:55.294Z,6.20
2023-11-25T08:10:26.071Z,4.90
2023-11-25T08:12:55.123Z,8.30
2023-11-25T08:15:24.376Z,11.80
2023-11-25T08:17:53.450Z,20.70
2023-11-25T08:20:22.253Z,14.70
2023-11-25T08:22:50.455Z,19.00
2023-11-25T08:25:20.091Z,6.60
2023-11-25T08:27:52.633Z,3.10
2023-11-25T08:30:22.563Z,3.70
2023-11-25T08:32:50.840Z,5.90
2023-11-25T08:35:19.080Z,3.20
2023-11-25T08:37:49.440Z,4.80
2023-11-25T08:40:19.017Z,3.10
2023-11-25T08:42:47.707Z,3.40
2023-11-25T08:45:16.020Z,2.40
2023-11-25T08:47:44.797Z,3.40
2023-11-25T08:50:17.320Z,2.40
2023-11-25T08:52:48.511Z,2.00
2023-11-25T08:55:19.896Z,1.60
2023-11-25T08:57:49.741Z,1.70
2023-11-25T09:00:21.625Z,1.60
2023-11-25T09:02:52.851Z,1.60
2023-11-25T09:05:27.213Z,1.70
2023-11-25T09:07:57.142Z,3.90
2023-11-25T09:10:27.605Z,3.80
2023-11-25T09:12:56.018Z,3.50
2023-11-25T09:15:24.387Z,3.20
2023-11-25T09:17:53.348Z,3.40
2023-11-25T09:20:23.470Z,2.70
2023-11-25T09:22:52.744Z,3.60
2023-11-25T09:25:22.083Z,2.50
2023-11-25T09:27:52.333Z,2.50
2023-11-25T09:30:20.725Z,1.80
2023-11-25T09:32:48.909Z,1.90
2023-11-25T09:35:17.265Z,2.00
2023-11-25T09:37:46.571Z,1.90
2023-11-25T09:40:19.641Z,2.00
2023-11-25T09:42:48.982Z,2.00
2023-11-25T09:45:21.025Z,2.00
2023-11-25T09:47:49.331Z,2.10
2023-11-25T09:50:17.946Z,3.90
2023-11-25T09:55:23.737Z,4.00
2023-11-25T09:58:01.461Z,3.20
2023-11-25T10:00:31.771Z,3.90
2023-11-25T10:03:02.763Z,5.10
2023-11-25T10:05:33.654Z,6.20
2023-11-25T10:08:02.461Z,4.40
2023-11-25T10:10:31.404Z,3.60
2023-11-25T10:13:01.773Z,2.10
2023-11-25T10:15:30.991Z,3.20
2023-11-25T10:20:28.573Z,2.50
2023-11-25T10:25:29.397Z,2.40
2023-11-25T10:27:58.418Z,2.30
2023-11-25T10:30:30.437Z,3.00
2023-11-25T10:33:02.892Z,2.50
2023-11-25T10:35:34.954Z,2.00
2023-11-25T10:38:06.622Z,1.90
2023-11-25T10:40:35.684Z,3.10
2023-11-25T10:43:05.338Z,6.80
2023-11-25T10:45:33.810Z,6.80
2023-11-25T10:48:03.986Z,2.90
2023-11-25T10:50:32.567Z,5.00
2023-11-25T10:53:05.309Z,3.70
2023-11-25T10:55:34.893Z,3.70
2023-11-25T10:58:06.714Z,2.80
2023-11-25T11:00:36.065Z,3.70
2023-11-25T11:03:09.738Z,2.80
2023-11-25T11:06:02.560Z,2.40
2023-11-25T11:08:44.490Z,2.50
2023-11-25T11:11:27.172Z,5.30
2023-11-25T11:14:08.506Z,5.00
2023-11-25T11:16:39.419Z,5.80
2023-11-25T11:19:11.331Z,6.30
2023-11-25T11:21:40.339Z,9.80
2023-11-25T11:24:10.187Z,4.40
2023-11-25T11:26:44.928Z,6.70
2023-11-25T11:29:30.238Z,8.00
2023-11-25T11:32:06.334Z,4.30
2023-11-25T11:34:37.870Z,4.50
2023-11-25T11:37:10.245Z,4.10
2023-11-25T11:39:45.166Z,3.30
2023-11-25T11:42:35.517Z,3.90
2023-11-25T11:45:20.817Z,4.30
2023-11-25T11:48:01.070Z,3.10
2023-11-25T11:50:34.514Z,3.40
2023-11-25T11:53:05.791Z,7.20
2023-11-25T11:55:46.031Z,5.30
2023-11-25T11:58:19.710Z,2.80
2023-11-25T12:00:53.960Z,7.50
2023-11-25T12:03:23.362Z,19.50
2023-11-25T12:05:52.829Z,4.60
2023-11-25T12:08:22.271Z,4.80
2023-11-25T12:10:52.225Z,2.60
2023-11-25T12:13:37.155Z,3.10
2023-11-25T12:16:06.117Z,1.80
2023-11-25T12:18:36.785Z,1.80
2023-11-25T12:21:07.047Z,1.60
2023-11-25T12:26:08.553Z,1.70
2023-11-25T12:28:46.452Z,2.00
2023-11-25T12:31:14.410Z,2.60
2023-11-25T12:33:42.541Z,2.30
2023-11-25T12:36:10.522Z,1.50
2023-11-25T12:38:39.139Z,1.70
2023-11-25T12:41:13.912Z,1.40
2023-11-25T12:44:11.910Z,1.60
2023-11-25T12:46:43.044Z,3.40
2023-11-25T12:49:25.344Z,4.10
2023-11-25T12:51:54.455Z,3.40
2023-11-25T12:54:22.928Z,10.40
2023-11-25T12:56:53.558Z,4.80
2023-11-25T12:59:30.679Z,4.30
2023-11-25T13:02:12.934Z,4.80
2023-11-25T13:04:48.767Z,4.90
2023-11-25T13:07:34.912Z,5.30
2023-11-25T13:12:34.568Z,8.60
2023-11-25T13:15:04.553Z,4.60
2023-11-25T13:17:32.802Z,4.70
2023-11-25T13:20:02.138Z,8.30
2023-11-25T13:22:30.996Z,5.20
2023-11-25T13:24:59.930Z,4.20
2023-11-25T13:27:28.513Z,3.10
2023-11-25T13:29:57.718Z,2.50
2023-11-25T13:32:26.739Z,1.90
2023-11-25T13:34:55.678Z,2.20
2023-11-25T13:37:23.966Z,2.20
2023-11-25T13:39:52.546Z,3.70
2023-11-25T13:42:23.066Z,1.50
2023-11-25T13:44:51.087Z,1.40
2023-11-25T13:47:19.812Z,4.90
2023-11-25T13:49:47.935Z,8.30
2023-11-25T13:52:16.741Z,4.60
2023-11-25T13:54:45.324Z,8.80
2023-11-25T13:57:13.238Z,8.00
2023-11-25T13:59:41.312Z,6.20
2023-11-25T14:02:09.681Z,2.40
2023-11-25T14:04:41.053Z,2.20
2023-11-25T14:07:10.611Z,2.10
2023-11-25T14:09:38.614Z,1.40
2023-11-25T14:12:08.365Z,1.30
2023-11-25T14:14:36.729Z,1.40
2023-11-25T14:17:06.858Z,1.10
2023-11-25T14:19:35.327Z,1.30
2023-11-25T14:22:06.640Z,1.20
2023-11-25T14:24:34.612Z,1.20
2023-11-25T14:27:02.792Z,1.30
2023-11-25T14:29:31.464Z,1.10
2023-11-25T14:32:00.286Z,1.10
2023-11-25T14:34:28.464Z,1.30
2023-11-25T14:36:57.896Z,1.20
2023-11-25T14:39:41.926Z,1.10
2023-11-25T14:42:15.375Z,1.30
2023-11-25T14:44:45.847Z,1.20
2023-11-25T14:47:14.044Z,1.10
2023-11-25T14:49:42.365Z,1.20
2023-11-25T14:52:10.477Z,1.40
2023-11-25T14:54:42.235Z,1.30
2023-11-25T14:57:14.466Z,1.10
2023-11-25T14:59:42.622Z,1.10
2023-11-25T15:02:10.770Z,1.00
2023-11-25T15:04:39.621Z,1.30
2023-11-25T15:07:08.733Z,1.40
2023-11-25T15:09:36.954Z,1.40
2023-11-25T15:12:06.124Z,1.10
2023-11-25T15:14:34.898Z,1.40
2023-11-25T15:17:07.403Z,1.10
2023-11-25T15:19:38.172Z,1.10
2023-11-25T15:22:11.275Z,1.40
2023-11-25T15:24:39.722Z,1.00
2023-11-25T15:27:08.773Z,1.20
2023-11-25T15:29:37.059Z,1.20
2023-11-25T15:32:05.729Z,1.30
2023-11-25T15:37:01.779Z,0.70
2023-11-25T15:39:31.243Z,1.00
2023-11-25T15:42:00.507Z,1.30
2023-11-25T15:44:29.783Z,0.90
2023-11-25T15:46:57.954Z,1.00
2023-11-25T15:49:26.681Z,0.90
2023-11-25T15:51:55.668Z,0.80
2023-11-25T15:54:24.144Z,0.70
2023-11-25T15:56:52.258Z,0.90
2023-11-25T15:59:21.120Z,1.10
2023-11-25T16:01:49.941Z,0.90
2023-11-25T16:04:20.983Z,0.90
2023-11-25T16:06:50.743Z,1.10
2023-11-25T16:09:23.042Z,1.20
2023-11-25T16:11:51.134Z,1.60
2023-11-25T16:14:19.412Z,7.50
2023-11-25T16:16:48.842Z,16.60
2023-11-25T16:19:17.184Z,13.10
2023-11-25T16:21:46.195Z,6.70
2023-11-25T16:24:14.301Z,4.20
2023-11-25T16:26:42.386Z,16.70
2023-11-25T16:29:10.597Z,35.20
2023-11-25T16:31:38.802Z,61.00
2023-11-25T16:34:06.797Z,66.00
2023-11-25T16:36:35.759Z,7.00
2023-11-25T16:39:06.630Z,6.70
2023-11-25T16:41:35.472Z,3.90
2023-11-25T16:44:03.782Z,3.20
2023-11-25T16:46:31.979Z,2.20
2023-11-25T16:49:07.611Z,2.00
2023-11-25T16:51:37.428Z,1.70
2023-11-25T16:54:07.796Z,1.90
2023-11-25T16:56:35.973Z,1.90
2023-11-25T16:59:06.548Z,2.20
2023-11-25T17:01:34.722Z,1.90
2023-11-25T17:04:03.336Z,1.80
2023-11-25T17:09:00.440Z,1.70
2023-11-25T17:11:29.116Z,1.60
2023-11-25T17:16:29.759Z,1.50
2023-11-25T17:18:59.927Z,1.90
2023-11-25T17:21:28.888Z,1.80
2023-11-25T17:24:00.238Z,2.20
2023-11-25T17:26:31.090Z,2.40
2023-11-25T17:29:03.143Z,2.00
2023-11-25T17:31:32.338Z,2.00
2023-11-25T17:34:02.337Z,2.10
2023-11-25T17:36:30.956Z,1.70
2023-11-25T17:39:00.058Z,2.30
2023-11-25T17:41:29.355Z,3.20
2023-11-25T17:44:00.352Z,4.80
2023-11-25T17:46:29.354Z,10.00
2023-11-25T17:48:57.615Z,18.90
2023-11-25T17:53:56.056Z,25.40
2023-11-25T17:56:24.019Z,14.20
2023-11-25T17:58:52.344Z,9.20
2023-11-25T18:01:20.710Z,4.80
2023-11-25T18:03:49.155Z,5.40
2023-11-25T18:06:17.429Z,3.70
2023-11-25T18:08:45.661Z,6.60
2023-11-25T18:11:16.550Z,6.30
2023-11-25T18:13:45.335Z,31.60
2023-11-25T18:16:14.733Z,25.30
2023-11-25T18:18:43.091Z,15.00
2023-11-25T18:21:12.135Z,47.90
2023-11-25T18:23:41.045Z,16.70
2023-11-25T18:26:16.491Z,6.80
2023-11-25T18:28:45.197Z,5.50
2023-11-25T18:31:18.232Z,13.50
2023-11-25T18:33:46.649Z,27.40
2023-11-25T18:36:14.945Z,28.80
2023-11-25T18:38:43.555Z,14.30
2023-11-25T18:41:13.608Z,12.90
2023-11-25T18:43:41.923Z,9.90
2023-11-25T18:46:12.126Z,5.10
2023-11-25T18:48:40.870Z,3.80
2023-11-25T18:51:09.725Z,7.10
2023-11-25T18:53:38.066Z,10.30
2023-11-25T18:56:06.674Z,19.30
2023-11-25T18:58:35.048Z,27.80
2023-11-25T19:01:06.480Z,28.40
2023-11-25T19:03:34.635Z,12.40
2023-11-25T19:06:03.842Z,5.70
2023-11-25T19:08:31.922Z,4.70
2023-11-25T19:11:00.590Z,4.30
2023-11-25T19:13:29.348Z,4.90
2023-11-25T19:15:58.586Z,4.10
2023-11-25T19:18:26.723Z,6.10
2023-11-25T19:20:54.837Z,3.00
2023-11-25T19:23:22.804Z,3.10
2023-11-25T19:25:50.920Z,4.00
2023-11-25T19:28:21.563Z,4.00
2023-11-25T19:30:54.135Z,2.40
2023-11-25T19:33:22.591Z,2.70
2023-11-25T19:35:50.574Z,3.20
2023-11-25T19:38:18.759Z,3.30
2023-11-25T19:40:47.094Z,3.30
2023-11-25T19:43:15.249Z,3.80
2023-11-25T19:45:43.224Z,8.70
2023-11-25T19:48:11.433Z,4.50
2023-11-25T19:50:40.028Z,4.30
2023-11-25T19:53:09.500Z,3.20
2023-11-25T19:58:51.890Z,4.50
2023-11-25T20:01:21.460Z,10.70
2023-11-25T20:03:51.077Z,7.40
2023-11-25T20:06:20.730Z,6.40
2023-11-25T20:08:50.224Z,5.30
2023-11-25T20:11:19.972Z,4.20
2023-11-25T20:13:49.456Z,3.50
2023-11-25T20:16:19.003Z,3.10
2023-11-25T20:18:48.877Z,15.00
2023-11-25T20:21:18.448Z,4.10
2023-11-25T20:23:48.694Z,4.60
2023-11-25T20:26:18.214Z,7.50
2023-11-25T20:28:47.866Z,4.60
2023-11-25T20:31:17.772Z,5.70
2023-11-25T20:33:47.231Z,6.20
2023-11-25T20:36:16.786Z,6.40
2023-11-25T20:38:46.189Z,6.20
2023-11-25T20:41:15.870Z,5.50
2023-11-25T20:43:45.829Z,2.60
2023-11-25T20:46:16.691Z,2.50
2023-11-25T20:48:46.447Z,5.20
2023-11-25T20:51:20.397Z,3.50
2023-11-25T20:53:51.967Z,2.80
2023-11-25T20:56:21.575Z,2.50
2023-11-25T20:58:51.037Z,2.20
2023-11-25T21:01:21.357Z,2.50
2023-11-25T21:03:51.013Z,2.20
2023-11-25T21:06:21.738Z,2.50
2023-11-25T21:08:51.195Z,2.40
2023-11-25T21:11:20.637Z,2.20
2023-11-25T21:13:50.036Z,2.50
2023-11-25T21:16:19.933Z,2.40
2023-11-25T21:18:49.749Z,2.60
2023-11-25T21:21:19.526Z,2.50
2023-11-25T21:23:49.034Z,2.20
2023-11-25T21:26:19.641Z,2.80
2023-11-25T21:28:49.417Z,2.40
2023-11-25T21:31:18.833Z,2.20
2023-11-25T21:33:48.224Z,2.50
2023-11-25T21:36:18.713Z,2.50
2023-11-25T21:38:48.126Z,2.00
2023-11-25T21:41:17.683Z,2.30
2023-11-25T21:43:47.157Z,2.90
2023-11-25T21:46:16.643Z,11.50
2023-11-25T21:48:46.019Z,12.60
2023-11-25T21:51:15.786Z,7.30
2023-11-25T21:53:45.310Z,4.50
2023-11-25T21:56:19.454Z,3.20
2023-11-25T21:58:48.825Z,2.50
2023-11-25T22:01:18.302Z,2.40
2023-11-25T22:03:47.824Z,2.70
2023-11-25T22:06:25.511Z,2.00
2023-11-25T22:08:57.018Z,2.30
2023-11-25T22:11:26.985Z,2.40
2023-11-25T22:13:58.619Z,2.20
2023-11-25T22:16:29.123Z,2.10
2023-11-25T22:19:00.409Z,2.00
2023-11-25T22:21:31.287Z,1.60
2023-11-25T22:24:01.055Z,2.00
2023-11-25T22:26:35.055Z,1.90
2023-11-25T22:29:06.309Z,2.00
2023-11-25T22:31:35.976Z,3.00
2023-11-25T22:34:06.338Z,2.20
2023-11-25T22:36:35.823Z,2.10
2023-11-25T22:39:06.275Z,2.00
2023-11-25T22:41:36.744Z,1.90
2023-11-25T22:44:06.601Z,2.20
2023-11-25T22:46:38.332Z,2.00
2023-11-25T22:49:09.917Z,3.00
2023-11-25T22:51:39.466Z,2.70
2023-11-25T22:54:09.787Z,2.40
2023-11-25T22:56:40.188Z,2.30
2023-11-25T22:59:10.320Z,1.80
2023-11-25T23:01:40.062Z,3.80
2023-11-25T23:04:09.743Z,2.20
2023-11-25T23:06:42.434Z,2.60
2023-11-25T23:09:11.903Z,3.20
2023-11-25T23:11:41.247Z,2.40
2023-11-25T23:14:11.349Z,2.30
2023-11-25T23:16:40.856Z,2.20
2023-11-25T23:19:10.572Z,2.60
2023-11-25T23:21:39.875Z,2.50
2023-11-25T23:24:09.663Z,2.50
2023-11-25T23:26:43.600Z,2.80
2023-11-25T23:29:13.188Z,2.40
2023-11-25T23:31:42.669Z,2.60
2023-11-25T23:34:12.517Z,2.00
2023-11-25T23:36:41.976Z,1.60
2023-11-25T23:39:11.624Z,1.90
2023-11-25T23:41:41.004Z,2.10
2023-11-25T23:44:10.511Z,2.20
2023-11-25T23:46:40.391Z,2.10
2023-11-25T23:49:11.755Z,2.30
2023-11-25T23:51:41.264Z,2.30
2023-11-25T23:54:10.802Z,2.10
2023-11-25T23:56:40.238Z,2.80
2023-11-25T23:59:09.797Z,2.70
